PHVFC EHLE-EHLE
Flight info
| Callsign | PHVFC |
|---|---|
| Flight time | 0h 14m |
| Altitude | 1500 |
| Route | DCT 522608N0053210E DCT 522442N0053502E/N0111F020 522140N0053706E 5223N00543E 522659N0055039E DCT LE120 DCT LE107 DCT 523643N0053841E 523946N0053538E 523438N0053142E 523253N0053152E DCT 522821N0052910E DCT |
| Aircraft | P28A/L-SDFRY/C |
Departure
| Time | 2026-04-11 14:53 |
|---|---|
| Airport | Lelystad Airport (EHLE) |
Arrival
| Time | 2026-04-11 15:07 |
|---|---|
| Airport | Lelystad Airport (EHLE) |
| Time | Latitude | Longitude | Altitude | Speed | Heading |
|---|---|---|---|---|---|
| 2026-04-11 14:38 | 52.45809 | 5.52832 | -10 ft | 0 kts | 276° |
| 2026-04-11 14:49 | 52.45811 | 5.52825 | -9 ft | 5 kts | 297° |
| 2026-04-11 14:49 | 52.45836 | 5.52776 | -10 ft | 5 kts | 275° |
| 2026-04-11 14:49 | 52.45763 | 5.52644 | -9 ft | 8 kts | 226° |
| 2026-04-11 14:50 | 52.45780 | 5.52605 | -9 ft | 7 kts | 21° |
| 2026-04-11 14:50 | 52.45814 | 5.52586 | -9 ft | 4 kts | 255° |
| 2026-04-11 14:50 | 52.45814 | 5.52585 | -9 ft | 0 kts | 253° |
| 2026-04-11 14:51 | 52.45813 | 5.52584 | -9 ft | 2 kts | 252° |
| 2026-04-11 14:52 | 52.45837 | 5.52495 | -8 ft | 12 kts | 315° |
| 2026-04-11 14:52 | 52.45839 | 5.52386 | -7 ft | 17 kts | 225° |
| 2026-04-11 14:52 | 52.45637 | 5.51997 | 17 ft | 63 kts | 218° |
| 2026-04-11 14:52 | 52.45310 | 5.51452 | 147 ft | 74 kts | 224° |
| 2026-04-11 14:53 | 52.44951 | 5.50811 | 313 ft | 78 kts | 230° |
| 2026-04-11 14:53 | 52.44577 | 5.50144 | 475 ft | 81 kts | 228° |
| 2026-04-11 14:53 | 52.44193 | 5.49442 | 609 ft | 86 kts | 230° |
| 2026-04-11 14:53 | 52.43777 | 5.48675 | 734 ft | 94 kts | 238° |
| 2026-04-11 14:54 | 52.43783 | 5.47665 | 801 ft | 96 kts | 301° |
| 2026-04-11 14:54 | 52.44364 | 5.47128 | 832 ft | 102 kts | 355° |
| 2026-04-11 14:54 | 52.45011 | 5.47602 | 844 ft | 109 kts | 43° |
| 2026-04-11 14:54 | 52.45536 | 5.48531 | 825 ft | 112 kts | 46° |
| 2026-04-11 14:55 | 52.46066 | 5.49478 | 779 ft | 114 kts | 46° |
| 2026-04-11 14:55 | 52.46549 | 5.50378 | 745 ft | 99 kts | 47° |
| 2026-04-11 14:55 | 52.46989 | 5.51228 | 719 ft | 97 kts | 48° |
| 2026-04-11 14:55 | 52.47416 | 5.52060 | 722 ft | 93 kts | 49° |
| 2026-04-11 14:56 | 52.47596 | 5.53036 | 620 ft | 90 kts | 98° |
| 2026-04-11 14:56 | 52.47274 | 5.53849 | 533 ft | 88 kts | 150° |
| 2026-04-11 14:56 | 52.46698 | 5.53880 | 383 ft | 86 kts | 213° |
| 2026-04-11 14:56 | 52.46292 | 5.53199 | 172 ft | 79 kts | 229° |
| 2026-04-11 14:57 | 52.45934 | 5.52557 | 38 ft | 74 kts | 228° |
| 2026-04-11 14:57 | 52.45622 | 5.52000 | -8 ft | 58 kts | 227° |
| 2026-04-11 14:57 | 52.45326 | 5.51475 | 60 ft | 70 kts | 226° |
| 2026-04-11 14:57 | 52.44980 | 5.50883 | 252 ft | 73 kts | 227° |
| 2026-04-11 14:58 | 52.44624 | 5.50270 | 432 ft | 76 kts | 227° |
| 2026-04-11 14:58 | 52.44243 | 5.49627 | 634 ft | 82 kts | 227° |
| 2026-04-11 14:58 | 52.43907 | 5.48830 | 759 ft | 95 kts | 259° |
| 2026-04-11 14:58 | 52.44126 | 5.47787 | 790 ft | 107 kts | 314° |
| 2026-04-11 14:59 | 52.44837 | 5.47465 | 817 ft | 115 kts | 12° |
| 2026-04-11 14:59 | 52.45479 | 5.48276 | 833 ft | 120 kts | 46° |
| 2026-04-11 14:59 | 52.46040 | 5.49297 | 845 ft | 119 kts | 47° |
| 2026-04-11 14:59 | 52.46554 | 5.50258 | 789 ft | 108 kts | 49° |
| 2026-04-11 15:00 | 52.47012 | 5.51196 | 779 ft | 102 kts | 50° |
| 2026-04-11 15:00 | 52.47446 | 5.52097 | 786 ft | 100 kts | 51° |
| 2026-04-11 15:00 | 52.47625 | 5.53151 | 740 ft | 101 kts | 103° |
| 2026-04-11 15:00 | 52.47191 | 5.53962 | 622 ft | 97 kts | 162° |
| 2026-04-11 15:01 | 52.46583 | 5.53737 | 391 ft | 92 kts | 225° |
| 2026-04-11 15:01 | 52.46195 | 5.53032 | 164 ft | 77 kts | 229° |
| 2026-04-11 15:01 | 52.45848 | 5.52407 | 9 ft | 72 kts | 228° |
| 2026-04-11 15:01 | 52.45549 | 5.51877 | -10 ft | 56 kts | 227° |
| 2026-04-11 15:02 | 52.45264 | 5.51371 | 45 ft | 69 kts | 228° |
| 2026-04-11 15:02 | 52.44917 | 5.50762 | 203 ft | 77 kts | 228° |
| 2026-04-11 15:02 | 52.44549 | 5.50107 | 386 ft | 78 kts | 228° |
| 2026-04-11 15:02 | 52.44285 | 5.49661 | 530 ft | 77 kts | 226° |
| 2026-04-11 15:03 | 52.43937 | 5.48990 | 692 ft | 79 kts | 249° |
| 2026-04-11 15:03 | 52.43934 | 5.48389 | 747 ft | 83 kts | 287° |
| 2026-04-11 15:03 | 52.44342 | 5.47649 | 739 ft | 95 kts | 332° |
| 2026-04-11 15:03 | 52.45002 | 5.47741 | 712 ft | 103 kts | 31° |
| 2026-04-11 15:04 | 52.45525 | 5.48567 | 681 ft | 104 kts | 45° |
| 2026-04-11 15:04 | 52.46006 | 5.49432 | 684 ft | 101 kts | 47° |
| 2026-04-11 15:04 | 52.46600 | 5.49740 | 697 ft | 94 kts | 333° |
| 2026-04-11 15:04 | 52.46809 | 5.48859 | 725 ft | 90 kts | 251° |
| 2026-04-11 15:05 | 52.46324 | 5.48274 | 739 ft | 93 kts | 188° |
| 2026-04-11 15:05 | 52.45764 | 5.48759 | 719 ft | 100 kts | 120° |
| 2026-04-11 15:05 | 52.45878 | 5.49794 | 702 ft | 98 kts | 44° |
| 2026-04-11 15:05 | 52.46331 | 5.50599 | 730 ft | 95 kts | 49° |
| 2026-04-11 15:06 | 52.46742 | 5.51444 | 744 ft | 92 kts | 51° |
| 2026-04-11 15:06 | 52.47090 | 5.52286 | 739 ft | 92 kts | 72° |
| 2026-04-11 15:06 | 52.46945 | 5.53235 | 637 ft | 87 kts | 137° |
| 2026-04-11 15:06 | 52.46403 | 5.53357 | 401 ft | 83 kts | 212° |
| 2026-04-11 15:07 | 52.45987 | 5.52657 | 61 ft | 86 kts | 229° |
| 2026-04-11 15:07 | 52.45616 | 5.52002 | -8 ft | 67 kts | 228° |
| 2026-04-11 15:07 | 52.45399 | 5.51609 | -8 ft | 22 kts | 230° |
| 2026-04-11 15:07 | 52.45328 | 5.51505 | -7 ft | 11 kts | 174° |
| 2026-04-11 15:08 | 52.45267 | 5.51584 | -9 ft | 11 kts | 137° |
| 2026-04-11 15:08 | 52.45226 | 5.51643 | -9 ft | 0 kts | 132° |
| 2026-04-11 15:09 | 52.45233 | 5.51693 | -9 ft | 9 kts | 48° |
| 2026-04-11 15:09 | 52.45289 | 5.51791 | -10 ft | 16 kts | 47° |
| 2026-04-11 15:09 | 52.45375 | 5.51943 | -10 ft | 16 kts | 47° |
| 2026-04-11 15:09 | 52.45463 | 5.52100 | -10 ft | 18 kts | 47° |
| 2026-04-11 15:10 | 52.45548 | 5.52253 | -9 ft | 21 kts | 48° |
| 2026-04-11 15:10 | 52.45637 | 5.52414 | -9 ft | 21 kts | 47° |
| 2026-04-11 15:10 | 52.45732 | 5.52584 | -9 ft | 14 kts | 50° |
| 2026-04-11 15:10 | 52.45800 | 5.52708 | -9 ft | 12 kts | 48° |
| 2026-04-11 15:11 | 52.45829 | 5.52761 | -10 ft | 0 kts | 48° |
| 2026-04-11 15:11 | 52.45830 | 5.52762 | -10 ft | 0 kts | 46° |
| 2026-04-11 15:11 | 52.45831 | 5.52763 | -10 ft | 0 kts | 47° |
| 2026-04-11 15:11 | 52.45847 | 5.52791 | -9 ft | 3 kts | 48° |
| 2026-04-11 15:12 | 52.45830 | 5.52837 | -10 ft | 3 kts | 148° |
| 2026-04-11 15:12 | 52.45821 | 5.52847 | -10 ft | 3 kts | 140° |
| 2026-04-11 15:12 | 52.45816 | 5.52844 | -10 ft | 0 kts | 281° |